Time;durP1;ratioP1;P1;durP2;ratioP2;P2;SDS_P1;SDS_P2;PMS_P1;PMS_P2;Temp;Humidity;BMP_temperature;BMP_pressure;BME280_temperature;BME280_humidity;BME280_pressure;Samples;Min_cycle;Max_cycle;Signal;HPM_P1;HPM_P2
2023/12/09 00:01:20;;;;;;;84.13;58.58;;;;;;;21.50;59.50;100048.56;20922239;28;20234;-60
2023/12/09 00:11:22;;;;;;;80.75;55.88;;;;;;;21.37;59.45;100059.97;20922804;28;20220;-53
2023/12/09 00:21:25;;;;;;;75.30;52.53;;;;;;;21.35;59.35;100055.84;20921502;28;20491;-59
2023/12/09 00:31:27;;;;;;;67.95;48.58;;;;;;;21.28;59.79;100061.31;20921321;28;20224;-52
2023/12/09 00:41:30;;;;;;;66.03;46.90;;;;;;;21.21;59.52;100067.56;20919793;28;20306;-56
2023/12/09 00:51:31;;;;;;;58.10;40.90;;;;;;;21.17;59.20;100062.94;20918755;28;20216;-50
2023/12/09 01:01:34;;;;;;;54.97;38.85;;;;;;;21.10;59.25;100066.41;20917816;28;20227;-56
2023/12/09 01:11:36;;;;;;;54.53;37.22;;;;;;;21.08;59.19;100060.28;20917382;28;20231;-62
2023/12/09 01:21:39;;;;;;;44.72;32.75;;;;;;;21.12;59.37;100069.69;20916378;28;20495;-59
2023/12/09 01:31:41;;;;;;;45.70;33.03;;;;;;;21.09;59.22;100070.41;20911758;28;20219;-53
2023/12/09 01:41:44;;;;;;;39.50;29.20;;;;;;;21.03;59.31;100077.53;20911598;28;20237;-53
2023/12/09 01:51:46;;;;;;;38.00;26.65;;;;;;;21.02;58.79;100070.22;20912421;28;20215;-52
2023/12/09 02:01:51;;;;;;;37.58;26.73;;;;;;;20.89;59.78;100071.44;20919770;28;20230;-58
2023/12/09 02:11:56;;;;;;;35.03;25.08;;;;;;;20.84;59.63;100083.00;20932057;28;20227;-51
2023/12/09 02:22:01;;;;;;;30.70;22.88;;;;;;;20.75;59.84;100065.34;20930935;28;20204;-52
2023/12/09 02:32:07;;;;;;;28.10;19.75;;;;;;;20.71;59.91;100041.78;20921868;28;20225;-54
2023/12/09 02:42:10;;;;;;;28.70;21.00;;;;;;;20.65;60.02;100039.19;20915806;28;20234;-53
2023/12/09 02:52:13;;;;;;;23.73;17.67;;;;;;;20.65;59.77;100010.91;20919274;28;20707;-50
2023/12/09 03:02:15;;;;;;;24.30;16.45;;;;;;;20.62;59.99;100003.16;20924735;28;20242;-51
2023/12/09 03:12:18;;;;;;;21.77;15.63;;;;;;;21.10;58.08;99994.84;20984092;28;20922;-53
2023/12/09 03:22:20;;;;;;;19.63;15.27;;;;;;;21.44;57.12;99990.53;20939614;28;20206;-54
2023/12/09 03:32:23;;;;;;;18.83;13.23;;;;;;;21.56;56.11;99973.47;21003635;28;20229;-48
2023/12/09 03:42:24;;;;;;;16.38;12.75;;;;;;;21.60;55.92;99960.25;21008527;28;20219;-52
2023/12/09 03:52:27;;;;;;;19.50;14.23;;;;;;;21.73;56.14;99947.63;21007758;28;20229;-50
2023/12/09 04:02:29;;;;;;;31.08;22.75;;;;;;;21.70;55.80;99942.69;20943423;28;20638;-52
2023/12/09 04:12:32;;;;;;;38.55;26.20;;;;;;;21.67;56.11;99940.63;20867107;28;20225;-52
2023/12/09 04:22:34;;;;;;;51.15;37.42;;;;;;;21.71;55.70;99961.34;20842993;28;20655;-63
2023/12/09 04:32:37;;;;;;;60.90;44.63;;;;;;;21.86;55.33;99969.00;20833650;28;20299;-56
2023/12/09 04:42:39;;;;;;;67.40;48.83;;;;;;;21.87;55.38;99967.81;20834206;28;20528;-60
2023/12/09 04:52:42;;;;;;;72.68;52.05;;;;;;;21.87;54.85;99952.81;20837524;28;20346;-60
2023/12/09 05:02:44;;;;;;;93.30;64.95;;;;;;;22.00;54.81;99935.38;20864837;28;20226;-61
2023/12/09 05:12:48;;;;;;;78.88;57.55;;;;;;;21.94;54.33;99919.03;20921756;28;20733;-56
2023/12/09 05:22:49;;;;;;;90.80;64.55;;;;;;;22.02;54.55;99916.00;20915173;28;20196;-62
2023/12/09 05:32:52;;;;;;;113.50;79.78;;;;;;;22.10;54.83;99917.81;20912902;28;20261;-65
2023/12/09 05:42:54;;;;;;;114.95;84.05;;;;;;;22.15;54.86;99896.88;20743559;28;20236;-40
2023/12/09 05:52:57;;;;;;;112.95;83.22;;;;;;;22.17;54.74;99899.31;20912860;28;20222;-41
2023/12/09 06:02:59;;;;;;;101.22;76.65;;;;;;;22.12;56.49;99889.09;20902610;28;20223;-65
2023/12/09 06:13:02;;;;;;;126.82;90.18;;;;;;;22.30;57.27;99886.66;20901683;28;20215;-51
2023/12/09 06:23:04;;;;;;;116.20;84.22;;;;;;;22.32;57.71;99873.75;20897273;28;20211;-50
2023/12/09 06:33:07;;;;;;;99.32;73.22;;;;;;;22.32;57.93;99858.78;20893617;28;20243;-61
2023/12/09 06:43:08;;;;;;;97.35;69.90;;;;;;;22.33;58.31;99855.53;20895141;28;20216;-61
2023/12/09 06:53:13;;;;;;;82.07;60.95;;;;;;;22.33;58.53;99843.41;20884944;28;20227;-61
2023/12/09 07:03:15;;;;;;;81.93;59.25;;;;;;;22.35;59.09;99849.50;20906003;28;20223;-43
2023/12/09 07:13:18;;;;;;;73.22;52.25;;;;;;;22.33;58.93;99834.91;20917383;28;20623;-61
2023/12/09 07:23:20;;;;;;;64.03;47.58;;;;;;;22.32;59.62;99819.06;20915231;28;20215;-44
2023/12/09 07:33:23;;;;;;;55.47;41.95;;;;;;;22.27;60.04;99797.50;20917111;28;20262;-42
2023/12/09 07:43:25;;;;;;;53.47;38.92;;;;;;;22.25;60.25;99788.56;20913825;28;20579;-46
2023/12/09 07:53:29;;;;;;;44.45;32.95;;;;;;;22.22;60.55;99766.63;20911817;28;20203;-45
2023/12/09 08:03:32;;;;;;;40.30;29.65;;;;;;;22.23;60.65;99750.44;20913699;28;20285;-46
2023/12/09 08:13:35;;;;;;;37.42;28.17;;;;;;;22.25;60.75;99731.03;20908090;28;20638;-44
2023/12/09 08:23:38;;;;;;;30.13;23.10;;;;;;;22.25;61.04;99731.03;20909567;28;20195;-43
2023/12/09 08:33:41;;;;;;;27.67;21.70;;;;;;;22.23;61.22;99700.25;20914183;28;20232;-44
2023/12/09 08:43:43;;;;;;;29.70;21.15;;;;;;;22.25;61.01;99703.53;20913859;28;20227;-46
2023/12/09 08:53:46;;;;;;;22.90;18.13;;;;;;;22.24;61.30;99707.53;20916787;28;20484;-58
2023/12/09 09:03:48;;;;;;;22.60;16.00;;;;;;;22.26;61.21;99684.50;20917734;28;21484;-61
2023/12/09 09:13:51;;;;;;;19.73;14.80;;;;;;;22.35;61.78;99691.56;20906794;28;20192;-60
2023/12/09 09:23:53;;;;;;;117.93;84.13;;;;;;;21.91;60.21;99691.09;20907901;28;20255;-55
2023/12/09 09:33:56;;;;;;;74.00;51.28;;;;;;;21.68;62.69;99678.88;20918558;28;20208;-44
2023/12/09 09:43:59;;;;;;;76.00;51.20;;;;;;;21.57;62.06;99644.66;20892560;28;20563;-61
2023/12/09 09:54:09;;;;;;;118.43;79.18;;;;;;;21.61;62.75;99622.09;20903662;28;20231;-60
2023/12/09 10:04:11;;;;;;;110.05;77.03;;;;;;;21.68;62.93;99588.25;20905978;28;20228;-49
2023/12/09 10:14:14;;;;;;;101.88;68.82;;;;;;;21.89;62.59;99562.34;20902667;28;20191;-59
2023/12/09 10:24:16;;;;;;;91.28;57.65;;;;;;;21.75;61.47;99528.91;20918096;28;20227;-59
2023/12/09 10:34:19;;;;;;;79.40;51.92;;;;;;;21.47;62.05;99505.72;20928078;28;20199;-57
2023/12/09 10:44:21;;;;;;;68.93;46.17;;;;;;;21.32;62.53;99488.47;20940866;28;20234;-59
2023/12/09 10:54:24;;;;;;;63.45;43.15;;;;;;;21.28;62.83;99462.13;20947473;28;20502;-60
2023/12/09 11:04:26;;;;;;;53.85;38.35;;;;;;;21.24;62.84;99437.78;20950565;28;20691;-60
2023/12/09 11:14:29;;;;;;;56.38;38.42;;;;;;;21.25;62.84;99405.47;20936283;28;20588;-60
2023/12/09 11:24:32;;;;;;;50.03;35.10;;;;;;;21.17;62.89;99352.72;20944769;28;20307;-57
2023/12/09 11:34:36;;;;;;;42.22;31.05;;;;;;;21.16;63.01;99342.63;20942214;28;20204;-58
2023/12/09 11:44:38;;;;;;;41.75;29.17;;;;;;;21.15;62.77;99305.03;20940828;28;20258;-59
2023/12/09 11:54:41;;;;;;;36.78;26.50;;;;;;;21.06;62.82;99267.66;20923921;28;20205;-56
2023/12/09 12:04:43;;;;;;;35.92;25.40;;;;;;;21.25;61.89;99236.50;20934614;28;20251;-57
2023/12/09 12:14:46;;;;;;;45.58;30.70;;;;;;;21.13;62.04;99205.56;20945968;28;20225;-49
2023/12/09 12:24:48;;;;;;;40.80;27.95;;;;;;;21.10;63.15;99186.50;20898593;28;20268;-57
2023/12/09 12:34:51;;;;;;;36.67;24.67;;;;;;;21.14;63.83;99161.94;20907415;28;20208;-57
2023/12/09 12:44:53;;;;;;;33.67;22.02;;;;;;;21.18;61.64;99123.16;20903540;28;20227;-62
2023/12/09 12:54:57;;;;;;;28.80;19.75;;;;;;;21.45;61.94;99060.88;20900054;28;20192;-63
2023/12/09 13:04:59;;;;;;;26.48;19.63;;;;;;;21.71;60.94;99029.63;20904200;28;20235;-59
2023/12/09 13:15:03;;;;;;;24.45;17.23;;;;;;;21.66;61.93;98979.84;20907890;28;20196;-55
2023/12/09 13:25:05;;;;;;;22.00;15.65;;;;;;;21.61;62.88;98960.38;20906825;28;20737;-44
2023/12/09 13:35:10;;;;;;;29.15;16.88;;;;;;;21.51;62.48;98898.00;20899766;28;20188;-44
2023/12/09 13:45:13;;;;;;;28.70;19.00;;;;;;;21.52;61.65;98877.78;20900298;28;20251;-42
2023/12/09 13:55:17;;;;;;;22.85;15.50;;;;;;;21.77;61.08;98841.19;20904285;28;20295;-44
2023/12/09 14:05:19;;;;;;;20.20;12.88;;;;;;;21.48;61.49;98788.38;20914348;28;20254;-43
2023/12/09 14:15:23;;;;;;;16.17;11.35;;;;;;;21.42;62.96;98778.66;20909344;28;20295;-43
2023/12/09 14:25:25;;;;;;;17.98;10.23;;;;;;;21.63;62.01;98759.78;20917050;28;20223;-43
2023/12/09 14:35:28;;;;;;;37.33;22.90;;;;;;;21.17;62.52;98731.09;20934123;28;20588;-44
2023/12/09 14:45:30;;;;;;;25.58;15.20;;;;;;;21.33;63.75;98691.25;20916065;28;20231;-46
2023/12/09 14:55:33;;;;;;;24.65;13.60;;;;;;;20.97;61.52;98665.50;20909166;28;20207;-56
2023/12/09 15:05:34;;;;;;;20.52;11.88;;;;;;;21.24;63.65;98635.03;20905513;28;20228;-50
2023/12/09 15:15:37;;;;;;;23.60;12.85;;;;;;;21.12;61.75;98569.44;20902473;28;20226;-49
2023/12/09 15:25:39;;;;;;;24.30;13.82;;;;;;;21.54;62.48;98541.38;20906060;28;20522;-57
2023/12/09 15:35:46;;;;;;;24.85;11.57;;;;;;;21.50;61.96;98491.63;20926191;28;20521;-56
2023/12/09 15:45:48;;;;;;;15.65;9.50;;;;;;;21.49;63.41;98434.22;20908566;28;20315;-56
2023/12/09 15:55:55;;;;;;;19.27;12.20;;;;;;;21.34;64.05;98433.34;20906701;28;20204;-51
2023/12/09 16:05:57;;;;;;;16.13;9.35;;;;;;;21.49;63.79;98373.97;20907712;28;20227;-49
2023/12/09 16:16:00;;;;;;;13.23;8.77;;;;;;;21.33;62.43;98371.50;20899663;28;20208;-54
2023/12/09 16:26:03;;;;;;;20.75;14.25;;;;;;;20.99;61.66;98328.59;20906934;28;20262;-52
2023/12/09 16:36:08;;;;;;;21.10;12.65;;;;;;;21.33;63.18;98297.94;20901375;28;20192;-56
2023/12/09 16:46:10;;;;;;;16.10;10.05;;;;;;;21.52;62.48;98282.59;20898883;28;20224;-51
2023/12/09 16:56:13;;;;;;;13.95;9.02;;;;;;;21.56;65.38;98249.41;20910068;28;20629;-54
2023/12/09 17:06:15;;;;;;;13.35;7.03;;;;;;;21.62;66.88;98230.81;20903825;28;20229;-58
